PWSweather.com
Personal Weather Stations
Station Observations
COONRAPIDS
Minneapolis, MN 55433

Minneapolis, MN 55433

Lat: 45.187721, Lon: -93.36828

Elevation: 898

Station Type: Davis Vantage Pro 2

High Low Average
Temperature 36.9°F2.7°C 20.8°F-6.2°C 29.2°F-1.6°C
Dew Point 28.7°F-1.8°C 17.5°F-8.1°C 23.6°F-4.7°C
Winds 6.9 mph 11.1 kmh Calm Calm 2.0 mph E3.2 kmh E
Wind Gusts 11.5 mph18.5 kmh -- 3.0 mph4.8 kmh
Humidity 88% 66% 80%
Pressure 30.23 in1023.7 mb 29.67 in1004.7 mb -
Precipitation 0.00 in0.0 mm - -
Hour Temp Dew Point Humidity Winds Wind Gusts Pressure Precip Precip Rate Daily Precip Total
12:00 AM 24.9°F-3.9°C 21.6°F-5.8°C 87% Calm Calm -- 30.16 in1021.3 mb - 0.00 in0.0 mm 0.16 in4.1 mm
12:10 AM 24.5°F-4.2°C 21.2°F-6.0°C 87% Calm Calm -- 30.16 in1021.3 mb - 0.00 in0.0 mm 0.16 in4.1 mm
12:20 AM 24.3°F-4.3°C 20.7°F-6.3°C 86% Calm Calm -- 30.15 in1021.0 mb - 0.00 in0.0 mm 0.16 in4.1 mm
12:30 AM 24.1°F-4.4°C 20.8°F-6.2°C 87% Calm Calm -- 30.16 in1021.3 mb - 0.00 in0.0 mm 0.16 in4.1 mm
12:40 AM 24.3°F-4.3°C 21.0°F-6.1°C 87% Calm Calm -- 30.17 in1021.7 mb - 0.00 in0.0 mm 0.16 in4.1 mm
12:50 AM 24.6°F-4.1°C 21.3°F-5.9°C 87% Calm Calm -- 30.17 in1021.7 mb - 0.00 in0.0 mm 0.16 in4.1 mm
01:00 AM 24.4°F-4.2°C 21.1°F-6.1°C 87% Calm Calm -- 30.17 in1021.7 mb - 0.00 in0.0 mm 0.00 in0.0 mm
01:10 AM 24.1°F-4.4°C 20.8°F-6.2°C 87% Calm Calm -- 30.18 in1022.0 mb - 0.00 in0.0 mm 0.00 in0.0 mm
01:20 AM 23.6°F-4.7°C 20.3°F-6.5°C 87% Calm Calm -- 30.18 in1022.0 mb - 0.00 in0.0 mm 0.00 in0.0 mm
01:30 AM 23.3°F-4.8°C 20.0°F-6.7°C 87% Calm Calm -- 30.19 in1022.4 mb - 0.00 in0.0 mm 0.00 in0.0 mm
01:40 AM 22.9°F-5.1°C 19.6°F-6.9°C 87% Calm Calm -- 30.20 in1022.7 mb - 0.00 in0.0 mm 0.00 in0.0 mm
01:50 AM 22.6°F-5.2°C 19.3°F-7.1°C 87% Calm Calm -- 30.21 in1023.0 mb - 0.00 in0.0 mm 0.00 in0.0 mm
02:00 AM 22.3°F-5.4°C 19.0°F-7.2°C 87% Calm Calm -- 30.20 in1022.7 mb - 0.00 in0.0 mm 0.00 in0.0 mm
02:10 AM 22.2°F-5.4°C 18.9°F-7.3°C 87% Calm Calm -- 30.20 in1022.7 mb - 0.00 in0.0 mm 0.00 in0.0 mm
02:20 AM 21.9°F-5.6°C 18.6°F-7.4°C 87% Calm Calm -- 30.19 in1022.4 mb - 0.00 in0.0 mm 0.00 in0.0 mm
02:30 AM 21.8°F-5.7°C 18.5°F-7.5°C 87% Calm Calm -- 30.19 in1022.4 mb - 0.00 in0.0 mm 0.00 in0.0 mm
02:40 AM 21.8°F-5.7°C 18.5°F-7.5°C 87% Calm Calm -- 30.19 in1022.4 mb - 0.00 in0.0 mm 0.00 in0.0 mm
02:50 AM 21.9°F-5.6°C 18.6°F-7.4°C 87% Calm Calm -- 30.19 in1022.4 mb - 0.00 in0.0 mm 0.00 in0.0 mm
03:00 AM 22.1°F-5.5°C 18.8°F-7.3°C 87% Calm Calm -- 30.20 in1022.7 mb - 0.00 in0.0 mm 0.00 in0.0 mm
03:10 AM 22.1°F-5.5°C 18.8°F-7.3°C 87% Calm Calm -- 30.21 in1023.0 mb - 0.00 in0.0 mm 0.00 in0.0 mm
03:20 AM 22.2°F-5.4°C 19.2°F-7.1°C 88% Calm Calm -- 30.21 in1023.0 mb - 0.00 in0.0 mm 0.00 in0.0 mm
03:30 AM 22.0°F-5.6°C 18.7°F-7.4°C 87% Calm Calm -- 30.22 in1023.4 mb - 0.00 in0.0 mm 0.00 in0.0 mm
03:40 AM 21.8°F-5.7°C 18.5°F-7.5°C 87% Calm Calm -- 30.22 in1023.4 mb - 0.00 in0.0 mm 0.00 in0.0 mm
03:50 AM 21.6°F-5.8°C 18.3°F-7.6°C 87% Calm Calm -- 30.22 in1023.4 mb - 0.00 in0.0 mm 0.00 in0.0 mm
04:00 AM 21.5°F-5.8°C 18.2°F-7.7°C 87% Calm Calm -- 30.22 in1023.4 mb - 0.00 in0.0 mm 0.00 in0.0 mm
04:10 AM 21.5°F-5.8°C 18.2°F-7.7°C 87% Calm Calm -- 30.23 in1023.7 mb - 0.00 in0.0 mm 0.00 in0.0 mm
04:20 AM 21.6°F-5.8°C 18.3°F-7.6°C 87% Calm Calm -- 30.22 in1023.4 mb - 0.00 in0.0 mm 0.00 in0.0 mm
04:30 AM 21.6°F-5.8°C 18.3°F-7.6°C 87% Calm Calm -- 30.22 in1023.4 mb - 0.00 in0.0 mm 0.00 in0.0 mm
04:40 AM 21.8°F-5.7°C 18.8°F-7.3°C 88% Calm Calm -- 30.21 in1023.0 mb - 0.00 in0.0 mm 0.00 in0.0 mm
04:50 AM 21.9°F-5.6°C 18.9°F-7.3°C 88% Calm Calm -- 30.21 in1023.0 mb - 0.00 in0.0 mm 0.00 in0.0 mm
05:00 AM 21.9°F-5.6°C 18.9°F-7.3°C 88% Calm Calm -- 30.22 in1023.4 mb - 0.00 in0.0 mm 0.00 in0.0 mm
05:10 AM 22.1°F-5.5°C 19.1°F-7.2°C 88% Calm Calm -- 30.22 in1023.4 mb - 0.00 in0.0 mm 0.00 in0.0 mm
05:20 AM 22.0°F-5.6°C 19.0°F-7.2°C 88% Calm Calm -- 30.22 in1023.4 mb - 0.00 in0.0 mm 0.00 in0.0 mm
05:30 AM 21.9°F-5.6°C 18.9°F-7.3°C 88% Calm Calm -- 30.22 in1023.4 mb - 0.00 in0.0 mm 0.00 in0.0 mm
05:40 AM 21.7°F-5.7°C 18.4°F-7.6°C 87% Calm Calm -- 30.22 in1023.4 mb - 0.00 in0.0 mm 0.00 in0.0 mm
05:50 AM 21.6°F-5.8°C 18.3°F-7.6°C 87% Calm Calm -- 30.23 in1023.7 mb - 0.00 in0.0 mm 0.00 in0.0 mm
06:00 AM 21.4°F-5.9°C 18.4°F-7.6°C 88% Calm Calm -- 30.22 in1023.4 mb - 0.00 in0.0 mm 0.00 in0.0 mm
06:10 AM 21.1°F-6.1°C 17.8°F-7.9°C 87% Calm Calm -- 30.22 in1023.4 mb - 0.00 in0.0 mm 0.00 in0.0 mm
06:20 AM 20.8°F-6.2°C 17.5°F-8.1°C 87% Calm Calm -- 30.21 in1023.0 mb - 0.00 in0.0 mm 0.00 in0.0 mm
06:30 AM 20.9°F-6.2°C 17.9°F-7.8°C 88% 1.2 mph NE1.9 kmh NE 3.5 mph5.6 kmh 30.20 in1022.7 mb - 0.00 in0.0 mm 0.00 in0.0 mm
06:40 AM 21.7°F-5.7°C 18.7°F-7.4°C 88% Calm Calm -- 30.21 in1023.0 mb - 0.00 in0.0 mm 0.00 in0.0 mm
06:50 AM 22.5°F-5.3°C 19.5°F-6.9°C 88% Calm Calm -- 30.21 in1023.0 mb - 0.00 in0.0 mm 0.00 in0.0 mm
07:00 AM 22.6°F-5.2°C 19.6°F-6.9°C 88% Calm Calm -- 30.21 in1023.0 mb - 0.00 in0.0 mm 0.00 in0.0 mm
07:10 AM 22.7°F-5.2°C 19.7°F-6.8°C 88% Calm Calm 1.2 mph1.9 kmh 30.21 in1023.0 mb - 0.00 in0.0 mm 0.00 in0.0 mm
07:20 AM 22.8°F-5.1°C 19.8°F-6.8°C 88% Calm Calm -- 30.22 in1023.4 mb - 0.00 in0.0 mm 0.00 in0.0 mm
07:30 AM 23.0°F-5.0°C 20.0°F-6.7°C 88% Calm Calm -- 30.22 in1023.4 mb - 0.00 in0.0 mm 0.00 in0.0 mm
07:40 AM 23.1°F-4.9°C 20.1°F-6.6°C 88% Calm Calm -- 30.22 in1023.4 mb - 0.00 in0.0 mm 0.00 in0.0 mm
07:50 AM 23.2°F-4.9°C 20.2°F-6.6°C 88% Calm Calm -- 30.21 in1023.0 mb - 0.00 in0.0 mm 0.00 in0.0 mm
08:00 AM 23.2°F-4.9°C 20.2°F-6.6°C 88% Calm Calm -- 30.22 in1023.4 mb - 0.00 in0.0 mm 0.00 in0.0 mm
08:10 AM 23.3°F-4.8°C 20.3°F-6.5°C 88% 1.2 mph NE1.9 kmh NE 1.2 mph1.9 kmh 30.21 in1023.0 mb - 0.00 in0.0 mm 0.00 in0.0 mm
08:20 AM 23.4°F-4.8°C 20.4°F-6.4°C 88% 1.2 mph ENE1.9 kmh ENE 3.5 mph5.6 kmh 30.21 in1023.0 mb - 0.00 in0.0 mm 0.00 in0.0 mm
08:30 AM 23.6°F-4.7°C 20.6°F-6.3°C 88% Calm Calm -- 30.21 in1023.0 mb - 0.00 in0.0 mm 0.00 in0.0 mm
08:40 AM 23.7°F-4.6°C 20.7°F-6.3°C 88% Calm Calm -- 30.22 in1023.4 mb - 0.00 in0.0 mm 0.00 in0.0 mm
08:50 AM 23.9°F-4.5°C 20.9°F-6.2°C 88% Calm Calm -- 30.22 in1023.4 mb - 0.00 in0.0 mm 0.00 in0.0 mm
09:00 AM 24.0°F-4.4°C 21.0°F-6.1°C 88% Calm Calm 1.2 mph1.9 kmh 30.21 in1023.0 mb - 0.00 in0.0 mm 0.00 in0.0 mm
09:10 AM 24.1°F-4.4°C 21.1°F-6.1°C 88% 1.2 mph ENE1.9 kmh ENE 3.5 mph5.6 kmh 30.21 in1023.0 mb - 0.00 in0.0 mm 0.00 in0.0 mm
09:20 AM 24.2°F-4.3°C 21.2°F-6.0°C 88% Calm Calm -- 30.21 in1023.0 mb - 0.00 in0.0 mm 0.00 in0.0 mm
09:30 AM 24.3°F-4.3°C 21.3°F-5.9°C 88% Calm Calm -- 30.21 in1023.0 mb - 0.00 in0.0 mm 0.00 in0.0 mm
09:40 AM 24.6°F-4.1°C 21.6°F-5.8°C 88% Calm Calm -- 30.21 in1023.0 mb - 0.00 in0.0 mm 0.00 in0.0 mm
09:50 AM 24.9°F-3.9°C 21.8°F-5.7°C 88% Calm Calm -- 30.20 in1022.7 mb - 0.00 in0.0 mm 0.00 in0.0 mm
10:00 AM 25.3°F-3.7°C 22.2°F-5.4°C 88% Calm Calm -- 30.20 in1022.7 mb - 0.00 in0.0 mm 0.00 in0.0 mm
10:10 AM 25.6°F-3.6°C 22.5°F-5.3°C 88% Calm Calm -- 30.20 in1022.7 mb - 0.00 in0.0 mm 0.00 in0.0 mm
10:20 AM 26.0°F-3.3°C 23.0°F-5.0°C 88% Calm Calm 2.3 mph3.7 kmh 30.20 in1022.7 mb - 0.00 in0.0 mm 0.00 in0.0 mm
10:30 AM 26.4°F-3.1°C 23.3°F-4.8°C 88% Calm Calm -- 30.20 in1022.7 mb - 0.00 in0.0 mm 0.00 in0.0 mm
10:40 AM 26.7°F-2.9°C 23.6°F-4.7°C 88% 1.2 mph E1.9 kmh E 3.5 mph5.6 kmh 30.19 in1022.4 mb - 0.00 in0.0 mm 0.00 in0.0 mm
10:50 AM 27.1°F-2.7°C 24.0°F-4.4°C 88% Calm Calm -- 30.19 in1022.4 mb - 0.00 in0.0 mm 0.00 in0.0 mm
11:00 AM 27.5°F-2.5°C 24.4°F-4.2°C 88% Calm Calm 2.3 mph3.7 kmh 30.19 in1022.4 mb - 0.00 in0.0 mm 0.00 in0.0 mm
11:10 AM 28.0°F-2.2°C 24.9°F-3.9°C 88% Calm Calm -- 30.18 in1022.0 mb - 0.00 in0.0 mm 0.00 in0.0 mm
11:20 AM 28.4°F-2.0°C 25.0°F-3.9°C 87% Calm Calm -- 30.18 in1022.0 mb - 0.00 in0.0 mm 0.00 in0.0 mm
11:30 AM 28.7°F-1.8°C 25.3°F-3.7°C 87% 2.3 mph E3.7 kmh E 4.6 mph7.4 kmh 30.17 in1021.7 mb - 0.00 in0.0 mm 0.00 in0.0 mm
11:40 AM 29.0°F-1.7°C 25.3°F-3.7°C 86% 1.2 mph E1.9 kmh E 3.5 mph5.6 kmh 30.17 in1021.7 mb - 0.00 in0.0 mm 0.00 in0.0 mm
11:50 AM 29.3°F-1.5°C 25.4°F-3.7°C 85% 2.3 mph ESE3.7 kmh ESE 3.5 mph5.6 kmh 30.16 in1021.3 mb - 0.00 in0.0 mm 0.00 in0.0 mm
12:00 PM 29.6°F-1.3°C 25.4°F-3.7°C 84% 2.3 mph E3.7 kmh E 3.5 mph5.6 kmh 30.16 in1021.3 mb - 0.00 in0.0 mm 0.00 in0.0 mm
12:10 PM 30.0°F-1.1°C 25.7°F-3.5°C 84% Calm Calm -- 30.16 in1021.3 mb - 0.00 in0.0 mm 0.00 in0.0 mm
12:20 PM 30.3°F-0.9°C 25.8°F-3.4°C 83% 2.3 mph ESE3.7 kmh ESE 4.6 mph7.4 kmh 30.16 in1021.3 mb - 0.00 in0.0 mm 0.00 in0.0 mm
12:30 PM 30.7°F-0.7°C 25.9°F-3.4°C 82% Calm Calm 3.5 mph5.6 kmh 30.15 in1021.0 mb - 0.00 in0.0 mm 0.00 in0.0 mm
12:40 PM 31.0°F-0.6°C 25.9°F-3.4°C 81% Calm Calm -- 30.15 in1021.0 mb - 0.00 in0.0 mm 0.00 in0.0 mm
12:50 PM 31.3°F-0.4°C 26.1°F-3.3°C 81% 2.3 mph E3.7 kmh E 3.5 mph5.6 kmh 30.13 in1020.3 mb - 0.00 in0.0 mm 0.00 in0.0 mm
01:00 PM 31.5°F-0.3°C 26.1°F-3.3°C 80% 2.3 mph ESE3.7 kmh ESE 3.5 mph5.6 kmh 30.12 in1020.0 mb - 0.00 in0.0 mm 0.00 in0.0 mm
01:10 PM 31.8°F-0.1°C 26.0°F-3.3°C 79% 1.2 mph ESE1.9 kmh ESE 3.5 mph5.6 kmh 30.12 in1020.0 mb - 0.00 in0.0 mm 0.00 in0.0 mm
01:20 PM 32.1°F0.1°C 26.3°F-3.2°C 79% 3.5 mph ESE5.6 kmh ESE 5.8 mph9.3 kmh 30.10 in1019.3 mb - 0.00 in0.0 mm 0.00 in0.0 mm
01:30 PM 32.2°F0.1°C 25.8°F-3.4°C 77% 4.6 mph ESE7.4 kmh ESE 8.1 mph13.0 kmh 30.09 in1019.0 mb - 0.00 in0.0 mm 0.00 in0.0 mm
01:40 PM 32.4°F0.2°C 26.0°F-3.3°C 77% Calm Calm 2.3 mph3.7 kmh 30.09 in1019.0 mb - 0.00 in0.0 mm 0.00 in0.0 mm
01:50 PM 32.7°F0.4°C 25.9°F-3.4°C 76% 3.5 mph ESE5.6 kmh ESE 4.6 mph7.4 kmh 30.08 in1018.6 mb - 0.00 in0.0 mm 0.00 in0.0 mm
02:00 PM 32.8°F0.4°C 26.1°F-3.3°C 76% 2.3 mph E3.7 kmh E 3.5 mph5.6 kmh 30.07 in1018.3 mb - 0.00 in0.0 mm 0.00 in0.0 mm
02:10 PM 33.0°F0.6°C 25.9°F-3.4°C 75% 1.2 mph ESE1.9 kmh ESE 3.5 mph5.6 kmh 30.08 in1018.6 mb - 0.00 in0.0 mm 0.00 in0.0 mm
02:20 PM 33.2°F0.7°C 26.1°F-3.3°C 75% Calm Calm -- 30.08 in1018.6 mb - 0.00 in0.0 mm 0.00 in0.0 mm
02:30 PM 33.4°F0.8°C 26.3°F-3.2°C 75% 1.2 mph ESE1.9 kmh ESE 8.1 mph13.0 kmh 30.08 in1018.6 mb - 0.00 in0.0 mm 0.00 in0.0 mm
02:40 PM 33.5°F0.8°C 26.4°F-3.1°C 75% 1.2 mph SE1.9 kmh SE 6.9 mph11.1 kmh 30.07 in1018.3 mb - 0.00 in0.0 mm 0.00 in0.0 mm
02:50 PM 33.7°F0.9°C 26.6°F-3.0°C 75% 2.3 mph ESE3.7 kmh ESE 4.6 mph7.4 kmh 30.06 in1017.9 mb - 0.00 in0.0 mm 0.00 in0.0 mm
03:00 PM 33.7°F0.9°C 26.6°F-3.0°C 75% 1.2 mph ESE1.9 kmh ESE 4.6 mph7.4 kmh 30.04 in1017.3 mb - 0.00 in0.0 mm 0.00 in0.0 mm
03:10 PM 33.7°F0.9°C 26.6°F-3.0°C 75% 1.2 mph ESE1.9 kmh ESE 1.2 mph1.9 kmh 30.03 in1016.9 mb - 0.00 in0.0 mm 0.00 in0.0 mm
03:20 PM 33.6°F0.9°C 26.5°F-3.1°C 75% 3.5 mph E5.6 kmh E 5.8 mph9.3 kmh 30.02 in1016.6 mb - 0.00 in0.0 mm 0.00 in0.0 mm
03:30 PM 33.6°F0.9°C 26.5°F-3.1°C 75% 2.3 mph ESE3.7 kmh ESE 3.5 mph5.6 kmh 30.01 in1016.3 mb - 0.00 in0.0 mm 0.00 in0.0 mm
03:40 PM 33.7°F0.9°C 26.6°F-3.0°C 75% 2.3 mph ESE3.7 kmh ESE 2.3 mph3.7 kmh 30.01 in1016.3 mb - 0.00 in0.0 mm 0.00 in0.0 mm
03:50 PM 33.6°F0.9°C 26.5°F-3.1°C 75% 3.5 mph ESE5.6 kmh ESE 6.9 mph11.1 kmh 30.01 in1016.3 mb - 0.00 in0.0 mm 0.00 in0.0 mm
04:00 PM 33.6°F0.9°C 26.5°F-3.1°C 75% 2.3 mph ESE3.7 kmh ESE 3.5 mph5.6 kmh 30.02 in1016.6 mb - 0.00 in0.0 mm 0.00 in0.0 mm
04:10 PM 33.6°F0.9°C 26.5°F-3.1°C 75% 3.5 mph SE5.6 kmh SE 6.9 mph11.1 kmh 30.01 in1016.3 mb - 0.00 in0.0 mm 0.00 in0.0 mm
04:20 PM 33.6°F0.9°C 26.5°F-3.1°C 75% 3.5 mph ESE5.6 kmh ESE 6.9 mph11.1 kmh 30.02 in1016.6 mb - 0.00 in0.0 mm 0.00 in0.0 mm
04:30 PM 33.7°F0.9°C 26.6°F-3.0°C 75% 4.6 mph SE7.4 kmh SE 6.9 mph11.1 kmh 30.01 in1016.3 mb - 0.00 in0.0 mm 0.00 in0.0 mm
04:40 PM 33.7°F0.9°C 26.3°F-3.2°C 74% 1.2 mph ESE1.9 kmh ESE 4.6 mph7.4 kmh 29.99 in1015.6 mb - 0.00 in0.0 mm 0.00 in0.0 mm
04:50 PM 33.7°F0.9°C 26.3°F-3.2°C 74% 3.5 mph ESE5.6 kmh ESE 3.5 mph5.6 kmh 30.00 in1015.9 mb - 0.00 in0.0 mm 0.00 in0.0 mm
05:00 PM 33.8°F1.0°C 26.4°F-3.1°C 74% 2.3 mph E3.7 kmh E 4.6 mph7.4 kmh 29.99 in1015.6 mb - 0.00 in0.0 mm 0.00 in0.0 mm
05:10 PM 33.8°F1.0°C 26.4°F-3.1°C 74% 3.5 mph SE5.6 kmh SE 4.6 mph7.4 kmh 29.99 in1015.6 mb - 0.00 in0.0 mm 0.00 in0.0 mm
05:20 PM 33.9°F1.1°C 26.1°F-3.3°C 73% 3.5 mph ESE5.6 kmh ESE 5.8 mph9.3 kmh 29.99 in1015.6 mb - 0.00 in0.0 mm 0.00 in0.0 mm
05:30 PM 34.0°F1.1°C 26.3°F-3.2°C 73% 3.5 mph E5.6 kmh E 11.5 mph18.5 kmh 29.96 in1014.6 mb - 0.00 in0.0 mm 0.00 in0.0 mm
05:40 PM 33.9°F1.1°C 25.8°F-3.4°C 72% 3.5 mph ESE5.6 kmh ESE 5.8 mph9.3 kmh 29.95 in1014.2 mb - 0.00 in0.0 mm 0.00 in0.0 mm
05:50 PM 33.9°F1.1°C 25.8°F-3.4°C 72% 3.5 mph SE5.6 kmh SE 4.6 mph7.4 kmh 29.95 in1014.2 mb - 0.00 in0.0 mm 0.00 in0.0 mm
06:00 PM 34.0°F1.1°C 25.9°F-3.4°C 72% 3.5 mph ESE5.6 kmh ESE 5.8 mph9.3 kmh 29.94 in1013.9 mb - 0.00 in0.0 mm 0.00 in0.0 mm
06:10 PM 33.9°F1.1°C 25.8°F-3.4°C 72% 2.3 mph ESE3.7 kmh ESE 8.1 mph13.0 kmh 29.94 in1013.9 mb - 0.00 in0.0 mm 0.00 in0.0 mm
06:20 PM 34.0°F1.1°C 25.6°F-3.6°C 71% 2.3 mph ESE3.7 kmh ESE 3.5 mph5.6 kmh 29.93 in1013.5 mb - 0.00 in0.0 mm 0.00 in0.0 mm
06:30 PM 34.0°F1.1°C 25.2°F-3.8°C 70% 4.6 mph SE7.4 kmh SE 9.2 mph14.8 kmh 29.91 in1012.9 mb - 0.00 in0.0 mm 0.00 in0.0 mm
06:40 PM 34.1°F1.2°C 25.3°F-3.7°C 70% 3.5 mph ESE5.6 kmh ESE 6.9 mph11.1 kmh 29.90 in1012.5 mb - 0.00 in0.0 mm 0.00 in0.0 mm
06:50 PM 34.0°F1.1°C 25.2°F-3.8°C 70% 2.3 mph ESE3.7 kmh ESE 6.9 mph11.1 kmh 29.89 in1012.2 mb - 0.00 in0.0 mm 0.00 in0.0 mm
07:00 PM 34.2°F1.2°C 25.1°F-3.8°C 69% 3.5 mph ESE5.6 kmh ESE 4.6 mph7.4 kmh 29.89 in1012.2 mb - 0.00 in0.0 mm 0.00 in0.0 mm
07:10 PM 34.5°F1.4°C 25.0°F-3.9°C 68% 3.5 mph SE5.6 kmh SE 6.9 mph11.1 kmh 29.90 in1012.5 mb - 0.00 in0.0 mm 0.00 in0.0 mm
07:20 PM 34.5°F1.4°C 25.0°F-3.9°C 68% 2.3 mph ENE3.7 kmh ENE 5.8 mph9.3 kmh 29.88 in1011.9 mb - 0.00 in0.0 mm 0.00 in0.0 mm
07:30 PM 34.4°F1.3°C 24.9°F-3.9°C 68% 3.5 mph E5.6 kmh E 4.6 mph7.4 kmh 29.87 in1011.5 mb - 0.00 in0.0 mm 0.00 in0.0 mm
07:40 PM 34.4°F1.3°C 24.6°F-4.1°C 67% 3.5 mph E5.6 kmh E 6.9 mph11.1 kmh 29.86 in1011.2 mb - 0.00 in0.0 mm 0.00 in0.0 mm
07:50 PM 34.6°F1.4°C 24.8°F-4.0°C 67% 5.8 mph ESE9.3 kmh ESE 11.5 mph18.5 kmh 29.85 in1010.8 mb - 0.00 in0.0 mm 0.00 in0.0 mm
08:00 PM 34.8°F1.6°C 24.6°F-4.1°C 66% 4.6 mph ESE7.4 kmh ESE 6.9 mph11.1 kmh 29.86 in1011.2 mb - 0.00 in0.0 mm 0.00 in0.0 mm
08:10 PM 34.8°F1.6°C 24.6°F-4.1°C 66% 4.6 mph SE7.4 kmh SE 10.4 mph16.7 kmh 29.85 in1010.8 mb - 0.00 in0.0 mm 0.00 in0.0 mm
08:20 PM 34.9°F1.6°C 24.7°F-4.1°C 66% 3.5 mph ESE5.6 kmh ESE 5.8 mph9.3 kmh 29.84 in1010.5 mb - 0.00 in0.0 mm 0.00 in0.0 mm
08:30 PM 35.0°F1.7°C 25.1°F-3.8°C 67% 4.6 mph SE7.4 kmh SE 6.9 mph11.1 kmh 29.84 in1010.5 mb - 0.00 in0.0 mm 0.00 in0.0 mm
08:40 PM 35.0°F1.7°C 25.1°F-3.8°C 67% 3.5 mph ESE5.6 kmh ESE 5.8 mph9.3 kmh 29.83 in1010.2 mb - 0.00 in0.0 mm 0.00 in0.0 mm
08:50 PM 35.0°F1.7°C 25.5°F-3.6°C 68% 2.3 mph ESE3.7 kmh ESE 5.8 mph9.3 kmh 29.83 in1010.2 mb - 0.00 in0.0 mm 0.00 in0.0 mm
09:00 PM 35.0°F1.7°C 25.9°F-3.4°C 69% 3.5 mph SE5.6 kmh SE 8.1 mph13.0 kmh 29.81 in1009.5 mb - 0.00 in0.0 mm 0.00 in0.0 mm
09:10 PM 35.1°F1.7°C 26.3°F-3.2°C 70% 2.3 mph SE3.7 kmh SE 4.6 mph7.4 kmh 29.82 in1009.8 mb - 0.00 in0.0 mm 0.00 in0.0 mm
09:20 PM 35.0°F1.7°C 26.2°F-3.2°C 70% 5.8 mph ESE9.3 kmh ESE 9.2 mph14.8 kmh 29.80 in1009.1 mb - 0.00 in0.0 mm 0.00 in0.0 mm
09:30 PM 35.1°F1.7°C 26.6°F-3.0°C 71% 3.5 mph E5.6 kmh E 5.8 mph9.3 kmh 29.80 in1009.1 mb - 0.00 in0.0 mm 0.00 in0.0 mm
09:40 PM 35.1°F1.7°C 26.6°F-3.0°C 71% 4.6 mph SE7.4 kmh SE 10.4 mph16.7 kmh 29.78 in1008.5 mb - 0.00 in0.0 mm 0.00 in0.0 mm
09:50 PM 35.2°F1.8°C 27.1°F-2.7°C 72% 5.8 mph ESE9.3 kmh ESE 9.2 mph14.8 kmh 29.77 in1008.1 mb - 0.00 in0.0 mm 0.00 in0.0 mm
10:00 PM 35.2°F1.8°C 27.1°F-2.7°C 72% 6.9 mph ESE11.1 kmh ESE 8.1 mph13.0 kmh 29.76 in1007.8 mb - 0.00 in0.0 mm 0.00 in0.0 mm
10:10 PM 35.2°F1.8°C 27.1°F-2.7°C 72% 3.5 mph SE5.6 kmh SE 8.1 mph13.0 kmh 29.75 in1007.5 mb - 0.00 in0.0 mm 0.00 in0.0 mm
10:20 PM 35.2°F1.8°C 27.1°F-2.7°C 72% 3.5 mph SE5.6 kmh SE 4.6 mph7.4 kmh 29.75 in1007.5 mb - 0.00 in0.0 mm 0.00 in0.0 mm
10:30 PM 35.3°F1.8°C 27.2°F-2.7°C 72% 2.3 mph SE3.7 kmh SE 4.6 mph7.4 kmh 29.75 in1007.5 mb - 0.00 in0.0 mm 0.00 in0.0 mm
10:40 PM 35.5°F1.9°C 27.4°F-2.6°C 72% 2.3 mph SSE3.7 kmh SSE 3.5 mph5.6 kmh 29.75 in1007.5 mb - 0.00 in0.0 mm 0.00 in0.0 mm
10:50 PM 35.9°F2.2°C 27.7°F-2.4°C 72% 2.3 mph ESE3.7 kmh ESE 8.1 mph13.0 kmh 29.75 in1007.5 mb - 0.00 in0.0 mm 0.00 in0.0 mm
11:00 PM 36.1°F2.3°C 27.6°F-2.4°C 71% 2.3 mph SE3.7 kmh SE 3.5 mph5.6 kmh 29.74 in1007.1 mb - 0.00 in0.0 mm 0.00 in0.0 mm
11:10 PM 36.3°F2.4°C 27.8°F-2.3°C 71% 5.8 mph SE9.3 kmh SE 8.1 mph13.0 kmh 29.73 in1006.8 mb - 0.00 in0.0 mm 0.00 in0.0 mm
11:20 PM 36.4°F2.4°C 27.9°F-2.3°C 71% 1.2 mph SE1.9 kmh SE 4.6 mph7.4 kmh 29.73 in1006.8 mb - 0.00 in0.0 mm 0.00 in0.0 mm
11:30 PM 36.4°F2.4°C 27.9°F-2.3°C 71% 3.5 mph SE5.6 kmh SE 6.9 mph11.1 kmh 29.71 in1006.1 mb - 0.00 in0.0 mm 0.00 in0.0 mm
11:40 PM 36.5°F2.5°C 28.0°F-2.2°C 71% 1.2 mph SE1.9 kmh SE 4.6 mph7.4 kmh 29.71 in1006.1 mb - 0.00 in0.0 mm 0.00 in0.0 mm
11:50 PM 36.6°F2.6°C 28.1°F-2.2°C 71% 3.5 mph SE5.6 kmh SE 3.5 mph5.6 kmh 29.71 in1006.1 mb - 0.00 in0.0 mm 0.00 in0.0 mm